Time;durP1;ratioP1;P1;durP2;ratioP2;P2;SDS_P1;SDS_P2;PMS_P1;PMS_P2;Temp;Humidity;BMP_temperature;BMP_pressure;BME280_temperature;BME280_humidity;BME280_pressure;Samples;Min_cycle;Max_cycle;Signal;HPM_P1;HPM_P2
2021/11/13 00:05:18;;;;;;;12.73;6.72;;;5.70;99.90;;;;;;12419260;28;20137;-42
2021/11/13 00:11:20;;;;;;;13.35;6.45;;;5.70;99.90;;;;;;12419748;28;20158;-41
2021/11/13 00:17:22;;;;;;;11.07;6.93;;;5.60;99.90;;;;;;12396099;28;20211;-36
2021/11/13 00:23:24;;;;;;;11.10;6.25;;;5.70;99.90;;;;;;12422059;28;20567;-36
2021/11/13 00:29:26;;;;;;;9.80;5.85;;;5.70;99.90;;;;;;12419647;28;20095;-41
2021/11/13 00:35:28;;;;;;;10.20;6.40;;;5.70;99.90;;;;;;12421579;28;20080;-40
2021/11/13 00:41:30;;;;;;;9.30;6.30;;;5.70;99.90;;;;;;12424733;28;20133;-37
2021/11/13 00:47:32;;;;;;;9.80;6.68;;;5.80;99.90;;;;;;12405283;28;20046;-40
2021/11/13 00:53:34;;;;;;;10.65;6.28;;;5.90;99.90;;;;;;12419871;28;20075;-37
2021/11/13 00:59:37;;;;;;;12.07;6.38;;;5.90;99.90;;;;;;12421810;28;20061;-40
2021/11/13 01:05:39;;;;;;;11.00;6.15;;;5.90;99.90;;;;;;12421695;28;20068;-36
2021/11/13 01:11:41;;;;;;;9.75;6.18;;;6.00;99.90;;;;;;12404385;28;20131;-40
2021/11/13 01:17:43;;;;;;;11.27;6.55;;;5.90;99.90;;;;;;12421865;28;20261;-40
2021/11/13 01:23:48;;;;;;;9.80;6.10;;;5.90;99.90;;;;;;12418535;28;20169;-36
2021/11/13 01:29:56;;;;;;;13.23;6.90;;;5.90;99.90;;;;;;12420596;28;20045;-41
2021/11/13 01:35:59;;;;;;;9.02;6.22;;;6.00;99.90;;;;;;12416701;28;20397;-36
2021/11/13 01:42:02;;;;;;;10.77;7.00;;;6.00;99.90;;;;;;12420845;28;20042;-40
2021/11/13 01:48:04;;;;;;;10.50;6.30;;;6.00;99.90;;;;;;12419075;28;20644;-36
2021/11/13 01:54:08;;;;;;;10.10;6.53;;;5.90;99.90;;;;;;12418301;28;20141;-36
2021/11/13 02:00:16;;;;;;;10.23;6.78;;;5.80;99.90;;;;;;12420362;28;20723;-36
2021/11/13 02:06:20;;;;;;;11.25;6.53;;;5.90;99.90;;;;;;12415218;28;20116;-37
2021/11/13 02:12:22;;;;;;;11.90;6.17;;;5.90;99.90;;;;;;12417774;28;20136;-36
2021/11/13 02:18:23;;;;;;;9.05;6.30;;;5.80;99.90;;;;;;12414516;28;20054;-36
2021/11/13 02:24:25;;;;;;;10.70;6.13;;;5.70;99.90;;;;;;12417347;28;20057;-37
2021/11/13 02:30:28;;;;;;;10.15;6.68;;;5.60;99.90;;;;;;12413982;28;20497;-41
2021/11/13 02:36:31;;;;;;;10.40;6.50;;;5.60;99.90;;;;;;12414721;28;20484;-40
2021/11/13 02:42:35;;;;;;;13.13;6.55;;;5.70;99.90;;;;;;12416129;28;20080;-36
2021/11/13 02:48:40;;;;;;;9.93;6.43;;;5.70;99.90;;;;;;12428821;28;20054;-40
2021/11/13 02:54:45;;;;;;;9.05;6.10;;;5.80;99.90;;;;;;12422448;28;20077;-37
2021/11/13 03:00:49;;;;;;;9.57;6.85;;;5.90;99.90;;;;;;12425775;28;20117;-40
2021/11/13 03:06:51;;;;;;;10.30;6.67;;;5.80;99.90;;;;;;12423339;28;20149;-36
2021/11/13 03:12:53;;;;;;;11.35;6.38;;;5.80;99.90;;;;;;12426336;28;20137;-36
2021/11/13 03:18:56;;;;;;;11.13;5.80;;;5.90;99.90;;;;;;12427351;28;20065;-37
2021/11/13 03:24:59;;;;;;;9.73;6.10;;;5.90;99.90;;;;;;12406814;28;20049;-43
2021/11/13 03:31:02;;;;;;;10.02;6.20;;;5.90;99.90;;;;;;12423565;28;20057;-41
2021/11/13 03:37:04;;;;;;;10.82;6.70;;;5.90;99.90;;;;;;12428772;28;20062;-37
2021/11/13 03:43:08;;;;;;;9.65;6.30;;;5.80;99.90;;;;;;12422610;28;20050;-36
2021/11/13 03:49:09;;;;;;;12.55;6.32;;;5.80;99.90;;;;;;12422760;28;20091;-37
2021/11/13 03:55:11;;;;;;;9.20;5.78;;;5.80;99.90;;;;;;12423143;28;20141;-36
2021/11/13 04:01:14;;;;;;;10.68;6.32;;;5.80;99.90;;;;;;12424977;28;20045;-40
2021/11/13 04:07:16;;;;;;;14.80;6.70;;;5.80;99.90;;;;;;12399900;28;20579;-40
2021/11/13 04:13:18;;;;;;;9.32;6.30;;;5.80;99.90;;;;;;12422897;28;20046;-37
2021/11/13 04:19:20;;;;;;;11.23;7.07;;;5.70;99.90;;;;;;12423491;28;20053;-37
2021/11/13 04:25:22;;;;;;;11.02;6.35;;;5.80;99.90;;;;;;12405949;28;20150;-38
2021/11/13 04:31:24;;;;;;;10.80;7.10;;;5.80;99.90;;;;;;12423421;28;20057;-42
2021/11/13 04:37:27;;;;;;;11.32;6.72;;;5.70;99.90;;;;;;12423707;28;20099;-40
2021/11/13 04:43:31;;;;;;;12.77;6.45;;;5.60;99.90;;;;;;12421970;28;20069;-36
2021/11/13 04:49:34;;;;;;;11.75;6.68;;;5.50;99.90;;;;;;12423595;28;20045;-41
2021/11/13 04:55:35;;;;;;;12.82;6.50;;;5.50;99.90;;;;;;12422615;28;20104;-41
2021/11/13 05:01:38;;;;;;;10.75;6.80;;;5.40;99.90;;;;;;12421676;28;20080;-37
2021/11/13 05:07:39;;;;;;;10.10;6.20;;;5.50;99.90;;;;;;12407504;28;20140;-36
2021/11/13 05:13:41;;;;;;;11.93;6.50;;;5.50;99.90;;;;;;12421288;28;20099;-36
2021/11/13 05:19:43;;;;;;;13.38;7.25;;;5.50;99.90;;;;;;12424171;28;20050;-40
2021/11/13 05:25:47;;;;;;;12.90;6.93;;;5.60;99.90;;;;;;12420485;28;20099;-37
2021/11/13 05:31:49;;;;;;;11.45;6.32;;;5.60;99.90;;;;;;12401591;28;20099;-36
2021/11/13 05:37:53;;;;;;;12.13;7.40;;;5.50;99.90;;;;;;12421212;28;20200;-36
2021/11/13 05:43:55;;;;;;;12.13;6.83;;;5.60;99.90;;;;;;12422914;28;20053;-42
2021/11/13 05:49:56;;;;;;;14.38;7.47;;;5.50;99.90;;;;;;12403521;28;20092;-43
2021/11/13 05:55:59;;;;;;;11.95;7.68;;;5.50;99.90;;;;;;12421165;28;20088;-40
2021/11/13 06:02:01;;;;;;;11.43;7.22;;;5.60;99.90;;;;;;12419178;28;21003;-42
2021/11/13 06:08:03;;;;;;;14.50;7.47;;;5.50;99.90;;;;;;12420834;28;20080;-41
2021/11/13 06:14:05;;;;;;;11.73;7.13;;;5.50;99.90;;;;;;12413842;28;20050;-39
2021/11/13 06:20:09;;;;;;;15.68;7.57;;;5.50;99.90;;;;;;12431536;28;20523;-37
2021/11/13 06:26:13;;;;;;;13.73;7.47;;;5.40;99.90;;;;;;12430845;28;20050;-40
2021/11/13 06:32:16;;;;;;;14.63;7.53;;;5.40;99.90;;;;;;12430414;28;20173;-41
2021/11/13 06:38:22;;;;;;;14.90;7.50;;;5.40;99.90;;;;;;12434349;28;20103;-37
2021/11/13 06:44:31;;;;;;;14.85;8.45;;;5.40;99.90;;;;;;12436459;28;20144;-37
2021/11/13 06:50:35;;;;;;;15.13;7.87;;;5.30;99.90;;;;;;12437763;28;20050;-37
2021/11/13 06:56:38;;;;;;;15.85;7.95;;;5.20;99.90;;;;;;12429261;28;20046;-38
2021/11/13 07:02:41;;;;;;;16.80;8.48;;;5.30;99.90;;;;;;12429093;28;20045;-41
2021/11/13 07:08:44;;;;;;;;;;;5.30;99.90;;;;;;12430218;28;20065;-40
2021/11/13 07:14:46;;;;;;;13.75;8.10;;;5.30;99.90;;;;;;12430855;28;19957;-41
2021/11/13 07:20:59;;;;;;;15.20;8.55;;;5.30;99.90;;;;;;12429918;28;20149;-37
2021/11/13 07:27:02;;;;;;;16.75;8.50;;;5.30;99.90;;;;;;12427743;28;20054;-41
2021/11/13 07:33:06;;;;;;;17.48;9.30;;;5.20;99.90;;;;;;12362748;28;20046;-37
2021/11/13 07:39:08;;;;;;;17.33;8.93;;;5.20;99.90;;;;;;12378851;28;20104;-37
2021/11/13 07:45:10;;;;;;;18.25;9.20;;;5.20;99.90;;;;;;12379973;28;20413;-41
2021/11/13 07:51:20;;;;;;;13.27;8.43;;;5.30;99.90;;;;;;12386757;28;20145;-37
2021/11/13 07:57:35;;;;;;;17.65;9.05;;;5.30;99.90;;;;;;12384360;28;20050;-40
2021/11/13 08:03:42;;;;;;;18.00;9.18;;;5.40;99.90;;;;;;12381268;28;20508;-40
2021/11/13 08:09:47;;;;;;;22.60;9.45;;;5.50;99.90;;;;;;12385318;28;20050;-37
2021/11/13 08:15:53;;;;;;;19.15;9.30;;;5.50;99.90;;;;;;12386096;28;20496;-40
2021/11/13 08:22:01;;;;;;;20.55;8.73;;;5.60;99.90;;;;;;12377382;28;20050;-36
2021/11/13 08:28:13;;;;;;;17.30;9.65;;;5.60;99.90;;;;;;12391759;28;20049;-37
2021/11/13 08:34:22;;;;;;;19.45;10.07;;;5.60;99.90;;;;;;12432767;28;20049;-40
2021/11/13 08:40:31;;;;;;;17.55;9.38;;;5.60;99.90;;;;;;12418791;28;20046;-41
2021/11/13 08:46:44;;;;;;;19.50;9.63;;;5.70;99.90;;;;;;12418904;28;20400;-37
2021/11/13 08:53:10;;;;;;;16.60;9.77;;;5.60;99.90;;;;;;12416495;28;20045;-37
2021/11/13 08:59:23;;;;;;;19.10;9.20;;;5.70;99.90;;;;;;12433354;28;20427;-41
2021/11/13 09:05:30;;;;;;;18.45;9.80;;;5.70;99.90;;;;;;12406594;28;20089;-40
2021/11/13 09:11:37;;;;;;;14.90;9.43;;;5.80;99.90;;;;;;12431581;28;20034;-41
2021/11/13 09:17:46;;;;;;;20.92;10.10;;;5.80;99.90;;;;;;12430090;28;20153;-36
2021/11/13 09:24:00;;;;;;;17.85;10.07;;;5.80;99.90;;;;;;12428775;28;20050;-37
2021/11/13 09:30:06;;;;;;;18.77;11.00;;;5.80;99.90;;;;;;12430622;28;20112;-40
2021/11/13 09:36:14;;;;;;;17.30;9.90;;;5.90;99.90;;;;;;12397023;28;20100;-41
2021/11/13 09:42:18;;;;;;;19.13;10.30;;;6.00;99.90;;;;;;12423778;28;20045;-40
2021/11/13 09:48:20;;;;;;;20.33;10.13;;;5.90;99.90;;;;;;12425531;28;20843;-40
2021/11/13 09:54:25;;;;;;;19.40;9.80;;;6.00;99.90;;;;;;12429517;28;20038;-40
2021/11/13 10:00:32;;;;;;;17.00;10.00;;;6.00;99.90;;;;;;12437568;28;20107;-40
2021/11/13 10:06:37;;;;;;;19.75;9.93;;;6.10;99.90;;;;;;12433190;28;20064;-40
2021/11/13 10:12:43;;;;;;;15.65;8.90;;;6.20;99.90;;;;;;12429378;28;20050;-36
2021/11/13 10:18:51;;;;;;;16.25;9.15;;;6.30;99.90;;;;;;12433448;28;20397;-40
2021/11/13 10:24:54;;;;;;;16.60;8.95;;;6.30;99.90;;;;;;12432487;28;20049;-36
2021/11/13 10:31:15;;;;;;;15.07;8.93;;;6.40;99.90;;;;;;12430141;28;20053;-36
2021/11/13 10:37:28;;;;;;;16.70;9.10;;;6.50;99.90;;;;;;12429668;28;20057;-37
2021/11/13 10:43:38;;;;;;;;;;;6.60;99.90;;;;;;12431783;28;20540;-37
2021/11/13 10:49:40;;;;;;;14.65;8.48;;;6.60;99.90;;;;;;12407570;28;20032;-37
2021/11/13 10:56:11;;;;;;;15.80;8.07;;;6.60;99.90;;;;;;12430514;28;20444;-36
2021/11/13 11:02:18;;;;;;;16.10;9.25;;;6.50;99.90;;;;;;12428369;28;20116;-36
2021/11/13 11:08:31;;;;;;;15.55;8.77;;;6.50;99.90;;;;;;12430390;28;20045;-37
2021/11/13 11:14:37;;;;;;;13.95;8.93;;;6.50;99.90;;;;;;12427990;28;20053;-37
2021/11/13 11:20:45;;;;;;;13.35;7.85;;;6.40;99.90;;;;;;12412752;28;20118;-42
2021/11/13 11:26:54;;;;;;;12.65;7.82;;;6.50;99.90;;;;;;12430278;28;20082;-36
2021/11/13 11:32:58;;;;;;;14.27;9.02;;;6.50;99.90;;;;;;12426240;28;20125;-37
2021/11/13 11:39:01;;;;;;;14.27;8.07;;;6.50;99.90;;;;;;12415538;28;20042;-40
2021/11/13 11:45:05;;;;;;;14.93;8.10;;;6.50;99.90;;;;;;12429568;28;20446;-40
2021/11/13 11:51:08;;;;;;;14.13;8.23;;;6.40;99.90;;;;;;12428578;28;20049;-40
2021/11/13 11:57:11;;;;;;;15.68;9.00;;;6.50;99.90;;;;;;12428617;28;20053;-36
2021/11/13 12:03:30;;;;;;;17.63;9.50;;;6.40;99.90;;;;;;12426572;28;20516;-37
2021/11/13 12:09:32;;;;;;;15.57;9.10;;;6.40;99.90;;;;;;12403048;28;20050;-39
2021/11/13 12:16:03;;;;;;;15.98;9.80;;;6.40;99.90;;;;;;12428802;28;20408;-37
2021/11/13 12:22:05;;;;;;;17.33;10.20;;;6.40;99.90;;;;;;12406525;28;20508;-40
2021/11/13 12:28:14;;;;;;;18.30;9.90;;;6.40;99.90;;;;;;12410400;28;20045;-40
2021/11/13 12:34:26;;;;;;;17.73;10.07;;;6.50;99.90;;;;;;12427572;28;20136;-36
2021/11/13 12:40:48;;;;;;;16.05;9.65;;;6.50;99.90;;;;;;12425230;28;20133;-36
2021/11/13 12:47:11;;;;;;;14.13;9.27;;;6.60;99.90;;;;;;12425080;28;20053;-36
2021/11/13 12:53:16;;;;;;;16.30;10.00;;;6.50;99.90;;;;;;12423843;28;20496;-37
2021/11/13 12:59:25;;;;;;;16.02;9.50;;;6.60;99.90;;;;;;12431199;28;20042;-40
2021/11/13 13:05:28;;;;;;;12.63;8.20;;;6.60;99.90;;;;;;12421266;28;20401;-38
2021/11/13 13:11:30;;;;;;;15.02;9.48;;;6.60;99.90;;;;;;12425871;28;20490;-41
2021/11/13 13:17:35;;;;;;;15.95;9.25;;;6.60;99.90;;;;;;12424022;28;20053;-41
2021/11/13 13:23:38;;;;;;;15.80;9.10;;;6.70;99.90;;;;;;12421887;28;20401;-42
2021/11/13 13:29:43;;;;;;;14.15;8.93;;;6.60;99.90;;;;;;12418365;28;20049;-37
2021/11/13 13:35:45;;;;;;;14.07;7.97;;;6.50;99.90;;;;;;12384865;28;20167;-40
2021/11/13 13:41:49;;;;;;;17.08;9.43;;;6.60;99.90;;;;;;12417269;28;20510;-36
2021/11/13 13:47:59;;;;;;;14.90;8.57;;;6.60;99.90;;;;;;12413298;28;20496;-40
2021/11/13 13:54:14;;;;;;;15.68;9.07;;;6.50;99.90;;;;;;12417966;28;20129;-40
2021/11/13 14:00:18;;;;;;;13.80;8.23;;;6.50;99.90;;;;;;12417099;28;20050;-41
2021/11/13 14:06:24;;;;;;;12.27;7.90;;;6.50;99.90;;;;;;12419416;28;20136;-37
2021/11/13 14:12:50;;;;;;;15.73;8.35;;;6.60;99.90;;;;;;12419206;28;20152;-36
2021/11/13 14:18:52;;;;;;;13.88;9.00;;;6.60;99.90;;;;;;12418081;28;20049;-37
2021/11/13 14:24:59;;;;;;;12.95;7.72;;;6.70;99.90;;;;;;12402104;28;20053;-37
2021/11/13 14:31:02;;;;;;;15.38;9.07;;;6.80;99.90;;;;;;12417492;28;20100;-36
2021/11/13 14:37:07;;;;;;;13.52;8.05;;;6.90;99.90;;;;;;12419668;28;20100;-41
2021/11/13 14:43:27;;;;;;;13.23;8.10;;;6.90;99.90;;;;;;12430628;28;20053;-36
2021/11/13 14:49:35;;;;;;;14.65;8.15;;;6.80;99.90;;;;;;12430229;28;20065;-37
2021/11/13 14:55:37;;;;;;;14.55;8.15;;;6.80;99.90;;;;;;12426302;28;20054;-37
2021/11/13 15:01:45;;;;;;;16.20;8.60;;;6.80;99.90;;;;;;12424918;28;20053;-40
2021/11/13 15:07:47;;;;;;;13.18;8.38;;;6.70;99.90;;;;;;12403339;28;20058;-37
2021/11/13 15:13:55;;;;;;;13.88;8.15;;;6.70;99.90;;;;;;12422111;28;20049;-36
2021/11/13 15:20:04;;;;;;;13.75;8.13;;;6.70;99.90;;;;;;12426696;28;20054;-36
2021/11/13 15:26:07;;;;;;;11.82;7.47;;;6.70;99.90;;;;;;12427849;28;20054;-37
2021/11/13 15:32:10;;;;;;;12.07;8.23;;;6.60;99.90;;;;;;12428053;28;20053;-40
2021/11/13 15:38:25;;;;;;;12.02;7.85;;;6.60;99.90;;;;;;12428218;28;20049;-37
2021/11/13 15:44:26;;;;;;;13.40;7.97;;;6.70;99.90;;;;;;12424916;28;20129;-43
2021/11/13 15:50:29;;;;;;;12.63;7.75;;;6.70;99.90;;;;;;12425797;28;20057;-37
2021/11/13 15:56:45;;;;;;;12.00;8.38;;;6.70;99.90;;;;;;12425210;28;20049;-42
2021/11/13 16:02:50;;;;;;;12.20;7.90;;;6.70;99.90;;;;;;12422609;28;20104;-41
2021/11/13 16:08:52;;;;;;;13.20;8.07;;;6.70;99.90;;;;;;12420966;28;20081;-40
2021/11/13 16:15:13;;;;;;;14.43;7.63;;;6.70;99.90;;;;;;12423806;28;20061;-37
2021/11/13 16:21:15;;;;;;;16.48;9.32;;;6.70;99.90;;;;;;12425926;28;20069;-36
2021/11/13 16:27:17;;;;;;;13.23;8.52;;;6.70;99.90;;;;;;12422974;28;20081;-40
2021/11/13 16:33:20;;;;;;;12.05;8.13;;;6.70;99.90;;;;;;12420238;28;20062;-37
2021/11/13 16:39:22;;;;;;;16.38;10.90;;;6.70;99.90;;;;;;12425145;28;20046;-40
2021/11/13 16:45:27;;;;;;;17.63;11.73;;;6.70;99.90;;;;;;12419109;28;20500;-36
2021/11/13 16:51:35;;;;;;;16.15;10.63;;;6.60;99.90;;;;;;12418729;28;20806;-40
2021/11/13 16:57:37;;;;;;;23.08;11.93;;;6.50;99.90;;;;;;12419531;28;20054;-37
2021/11/13 17:03:40;;;;;;;19.42;10.10;;;6.50;99.90;;;;;;12418838;28;20054;-37
2021/11/13 17:09:42;;;;;;;18.98;10.48;;;6.60;99.90;;;;;;12421455;28;20490;-37
2021/11/13 17:15:44;;;;;;;18.80;10.90;;;6.60;99.90;;;;;;12414654;28;20046;-36
2021/11/13 17:21:48;;;;;;;16.40;10.25;;;6.60;99.90;;;;;;12405556;28;20484;-36
2021/11/13 17:27:50;;;;;;;14.80;9.83;;;6.50;99.90;;;;;;12422980;28;20496;-40
2021/11/13 17:33:56;;;;;;;13.75;9.57;;;6.60;99.90;;;;;;12403681;28;20069;-40
2021/11/13 17:39:58;;;;;;;13.98;9.50;;;6.60;99.90;;;;;;12402254;28;20046;-37
2021/11/13 17:46:00;;;;;;;17.35;8.88;;;6.60;99.90;;;;;;12417974;28;20046;-36
2021/11/13 17:52:03;;;;;;;13.77;9.50;;;6.60;99.90;;;;;;12418595;28;20096;-42
2021/11/13 17:58:05;;;;;;;16.67;9.68;;;6.60;99.90;;;;;;12418333;28;20046;-36
2021/11/13 18:04:11;;;;;;;13.90;9.07;;;6.60;99.90;;;;;;12422533;28;20136;-37
2021/11/13 18:10:18;;;;;;;14.32;9.07;;;6.70;99.90;;;;;;12403463;28;20085;-36
2021/11/13 18:16:21;;;;;;;17.80;9.90;;;6.70;99.90;;;;;;12431687;28;20137;-36
2021/11/13 18:22:23;;;;;;;15.25;9.52;;;6.70;99.90;;;;;;12428474;28;20046;-41
2021/11/13 18:28:25;;;;;;;14.40;9.23;;;6.60;99.90;;;;;;12432142;28;20129;-38
2021/11/13 18:34:28;;;;;;;14.30;10.35;;;6.60;99.90;;;;;;12409662;28;20107;-40
2021/11/13 18:40:30;;;;;;;15.45;10.65;;;6.60;99.90;;;;;;12422155;28;20100;-36
2021/11/13 18:46:32;;;;;;;15.32;10.77;;;6.60;99.90;;;;;;12424258;28;20096;-36
2021/11/13 18:52:35;;;;;;;17.45;10.90;;;6.60;99.90;;;;;;12399848;28;20100;-42
2021/11/13 18:58:38;;;;;;;19.13;10.73;;;6.60;99.90;;;;;;12429164;28;20049;-36
2021/11/13 19:04:40;;;;;;;14.57;10.27;;;6.70;99.90;;;;;;12427663;28;20054;-37
2021/11/13 19:10:44;;;;;;;16.40;10.50;;;6.70;99.90;;;;;;12425405;28;20576;-36
2021/11/13 19:16:46;;;;;;;15.10;9.85;;;6.60;99.90;;;;;;12425326;28;20085;-41
2021/11/13 19:22:49;;;;;;;14.15;8.85;;;6.70;99.90;;;;;;12424094;28;20112;-41
2021/11/13 19:28:52;;;;;;;15.98;9.75;;;6.70;99.90;;;;;;12424594;28;20099;-41
2021/11/13 19:34:56;;;;;;;14.10;8.97;;;6.70;99.90;;;;;;12424903;28;20408;-36
2021/11/13 19:40:58;;;;;;;16.67;10.50;;;6.70;99.90;;;;;;12424247;28;20115;-36
2021/11/13 19:47:01;;;;;;;16.17;10.50;;;6.80;99.90;;;;;;12426532;28;20045;-37
2021/11/13 19:53:04;;;;;;;20.05;10.88;;;6.70;99.90;;;;;;12423353;28;20073;-36
2021/11/13 19:59:06;;;;;;;17.77;11.40;;;6.70;99.90;;;;;;12424608;28;20089;-37
2021/11/13 20:05:10;;;;;;;17.33;10.90;;;6.70;99.90;;;;;;12419833;28;20112;-42
2021/11/13 20:11:12;;;;;;;16.55;10.45;;;6.70;99.90;;;;;;12423200;28;20144;-36
2021/11/13 20:17:14;;;;;;;15.02;9.88;;;6.70;99.90;;;;;;12422470;28;20092;-43
2021/11/13 20:23:16;;;;;;;14.00;8.77;;;6.70;99.90;;;;;;12421254;28;20081;-40
2021/11/13 20:29:19;;;;;;;13.45;9.75;;;6.80;99.90;;;;;;12418955;28;20081;-41
2021/11/13 20:35:27;;;;;;;15.65;10.27;;;6.70;99.90;;;;;;12420258;28;20076;-40
2021/11/13 20:41:40;;;;;;;12.95;8.50;;;6.70;99.90;;;;;;12420218;28;20095;-37
2021/11/13 20:47:42;;;;;;;13.98;9.70;;;6.70;99.90;;;;;;12423732;28;20297;-36
2021/11/13 20:53:45;;;;;;;18.33;10.02;;;6.70;99.90;;;;;;12418660;28;20111;-40
2021/11/13 20:59:48;;;;;;;13.88;9.63;;;6.80;99.90;;;;;;12419288;28;20141;-39
2021/11/13 21:12:15;;;;;;;14.88;10.18;;;6.80;99.90;;;;;;12591096;23;20055;-37
2021/11/13 21:18:27;;;;;;;15.18;9.88;;;6.80;99.90;;;;;;12315086;23;20171;-88
2021/11/13 21:24:32;;;;;;;19.77;11.55;;;6.80;99.90;;;;;;12145247;29;20155;-90
2021/11/13 21:30:35;;;;;;;16.73;10.85;;;6.80;99.90;;;;;;12212637;29;20071;-88
2021/11/13 21:36:38;;;;;;;15.48;10.45;;;6.70;99.90;;;;;;12202791;29;20095;-87
2021/11/13 21:42:41;;;;;;;16.80;10.27;;;6.70;99.90;;;;;;12219824;29;20126;-87
2021/11/13 21:48:45;;;;;;;16.88;10.20;;;6.70;99.90;;;;;;12217316;29;20817;-88
2021/11/13 21:54:48;;;;;;;16.08;10.80;;;6.70;99.90;;;;;;12203000;29;20143;-87
2021/11/13 22:00:51;;;;;;;16.98;10.52;;;6.60;99.90;;;;;;12204984;29;20147;-90
2021/11/13 22:06:54;;;;;;;15.88;10.10;;;6.70;99.90;;;;;;12217414;29;20115;-88
2021/11/13 22:12:56;;;;;;;17.15;10.68;;;6.70;99.90;;;;;;12216569;29;20051;-88
2021/11/13 22:18:59;;;;;;;17.50;11.23;;;6.70;99.90;;;;;;12247303;28;20059;-88
2021/11/13 22:25:00;;;;;;;18.25;11.73;;;6.60;99.90;;;;;;12257695;28;20051;-88
2021/11/13 22:31:04;;;;;;;19.60;11.70;;;6.60;99.90;;;;;;12252722;28;20138;-88
2021/11/13 22:37:06;;;;;;;16.77;11.32;;;6.60;99.90;;;;;;12250964;28;20143;-89
2021/11/13 22:43:13;;;;;;;16.75;11.90;;;6.60;99.90;;;;;;12263516;28;20078;-90
2021/11/13 22:49:15;;;;;;;18.13;12.38;;;6.60;99.90;;;;;;12250341;28;20051;-89
2021/11/13 22:55:19;;;;;;;19.27;12.45;;;6.70;99.90;;;;;;12247267;28;20753;-89
2021/11/13 23:01:30;;;;;;;17.63;11.65;;;6.60;99.90;;;;;;12256479;28;20058;-89
2021/11/13 23:07:32;;;;;;;19.13;12.18;;;6.70;99.90;;;;;;12249618;28;20059;-87
2021/11/13 23:13:35;;;;;;;18.27;12.40;;;6.60;99.90;;;;;;12261254;28;20066;-89
2021/11/13 23:19:41;;;;;;;17.83;12.57;;;6.60;99.90;;;;;;12253770;28;20346;-89
2021/11/13 23:25:44;;;;;;;19.40;12.85;;;6.60;99.90;;;;;;12248220;28;20075;-88
2021/11/13 23:31:46;;;;;;;17.92;12.10;;;6.50;99.90;;;;;;12250377;28;20051;-89
2021/11/13 23:37:50;;;;;;;20.58;13.30;;;6.50;99.90;;;;;;12266340;28;20055;-88
2021/11/13 23:43:52;;;;;;;22.85;13.73;;;6.50;99.90;;;;;;12252963;28;20051;-90
2021/11/13 23:49:55;;;;;;;18.48;12.85;;;6.50;99.90;;;;;;12251076;28;20055;-88
2021/11/13 23:56:00;;;;;;;20.05;13.02;;;6.50;99.90;;;;;;12252477;28;20813;-88
